sensor_id;sensor_type;location;lat;lon;timestamp;temperature;humidity
48579;DHT22;34357;51.948;6.132;2023-12-04T00:00:38;0.20;92.30
48579;DHT22;34357;51.948;6.132;2023-12-04T00:03:04;0.20;92.30
48579;DHT22;34357;51.948;6.132;2023-12-04T00:05:29;0.20;92.20
48579;DHT22;34357;51.948;6.132;2023-12-04T00:07:55;0.20;92.10
48579;DHT22;34357;51.948;6.132;2023-12-04T00:10:21;0.20;92.00
48579;DHT22;34357;51.948;6.132;2023-12-04T00:12:47;0.20;92.00
48579;DHT22;34357;51.948;6.132;2023-12-04T00:15:13;0.20;91.90
48579;DHT22;34357;51.948;6.132;2023-12-04T00:17:38;0.20;91.90
48579;DHT22;34357;51.948;6.132;2023-12-04T00:20:08;0.20;91.80
48579;DHT22;34357;51.948;6.132;2023-12-04T00:22:35;0.20;91.80
48579;DHT22;34357;51.948;6.132;2023-12-04T00:25:05;0.20;91.70
48579;DHT22;34357;51.948;6.132;2023-12-04T00:27:32;0.20;91.60
48579;DHT22;34357;51.948;6.132;2023-12-04T00:29:57;0.20;91.60
48579;DHT22;34357;51.948;6.132;2023-12-04T00:32:23;0.20;91.50
48579;DHT22;34357;51.948;6.132;2023-12-04T00:34:49;0.20;91.30
48579;DHT22;34357;51.948;6.132;2023-12-04T00:37:15;0.20;91.30
48579;DHT22;34357;51.948;6.132;2023-12-04T00:39:41;0.20;91.10
48579;DHT22;34357;51.948;6.132;2023-12-04T00:42:07;0.20;91.00
48579;DHT22;34357;51.948;6.132;2023-12-04T00:44:32;0.20;91.00
48579;DHT22;34357;51.948;6.132;2023-12-04T00:46:58;0.30;91.10
48579;DHT22;34357;51.948;6.132;2023-12-04T00:49:24;0.20;91.10
48579;DHT22;34357;51.948;6.132;2023-12-04T00:51:50;0.20;91.00
48579;DHT22;34357;51.948;6.132;2023-12-04T00:54:16;0.20;91.00
48579;DHT22;34357;51.948;6.132;2023-12-04T00:56:41;0.20;90.90
48579;DHT22;34357;51.948;6.132;2023-12-04T00:59:08;0.20;90.90
48579;DHT22;34357;51.948;6.132;2023-12-04T01:01:35;0.20;90.80
48579;DHT22;34357;51.948;6.132;2023-12-04T01:04:01;0.20;90.70
48579;DHT22;34357;51.948;6.132;2023-12-04T01:06:27;0.20;90.50
48579;DHT22;34357;51.948;6.132;2023-12-04T01:08:54;0.20;90.40
48579;DHT22;34357;51.948;6.132;2023-12-04T01:11:20;0.20;90.50
48579;DHT22;34357;51.948;6.132;2023-12-04T01:13:46;0.20;90.50
48579;DHT22;34357;51.948;6.132;2023-12-04T01:16:11;0.20;90.50
48579;DHT22;34357;51.948;6.132;2023-12-04T01:18:37;0.10;90.30
48579;DHT22;34357;51.948;6.132;2023-12-04T01:21:03;0.10;90.20
48579;DHT22;34357;51.948;6.132;2023-12-04T01:23:29;0.10;90.10
48579;DHT22;34357;51.948;6.132;2023-12-04T01:25:54;0.10;90.20
48579;DHT22;34357;51.948;6.132;2023-12-04T01:28:20;0.10;90.30
48579;DHT22;34357;51.948;6.132;2023-12-04T01:30:46;0.10;90.20
48579;DHT22;34357;51.948;6.132;2023-12-04T01:33:12;0.10;90.30
48579;DHT22;34357;51.948;6.132;2023-12-04T01:35:37;0.10;90.30
48579;DHT22;34357;51.948;6.132;2023-12-04T01:38:03;0.20;90.30
48579;DHT22;34357;51.948;6.132;2023-12-04T01:40:29;0.20;90.10
48579;DHT22;34357;51.948;6.132;2023-12-04T01:42:54;0.20;90.00
48579;DHT22;34357;51.948;6.132;2023-12-04T01:45:20;0.20;90.00
48579;DHT22;34357;51.948;6.132;2023-12-04T01:47:46;0.20;90.10
48579;DHT22;34357;51.948;6.132;2023-12-04T01:50:12;0.20;90.10
48579;DHT22;34357;51.948;6.132;2023-12-04T01:52:40;0.20;90.00
48579;DHT22;34357;51.948;6.132;2023-12-04T01:55:06;0.20;90.00
48579;DHT22;34357;51.948;6.132;2023-12-04T01:57:34;0.20;90.00
48579;DHT22;34357;51.948;6.132;2023-12-04T02:00:00;0.20;90.00
48579;DHT22;34357;51.948;6.132;2023-12-04T02:02:28;0.20;90.00
48579;DHT22;34357;51.948;6.132;2023-12-04T02:04:58;0.20;89.90
48579;DHT22;34357;51.948;6.132;2023-12-04T02:07:25;0.30;89.80
48579;DHT22;34357;51.948;6.132;2023-12-04T02:09:50;0.30;89.70
48579;DHT22;34357;51.948;6.132;2023-12-04T02:12:17;0.30;89.80
48579;DHT22;34357;51.948;6.132;2023-12-04T02:14:43;0.30;89.80
48579;DHT22;34357;51.948;6.132;2023-12-04T02:17:09;0.30;89.50
48579;DHT22;34357;51.948;6.132;2023-12-04T02:19:35;0.30;89.50
48579;DHT22;34357;51.948;6.132;2023-12-04T02:22:01;0.30;89.50
48579;DHT22;34357;51.948;6.132;2023-12-04T02:24:27;0.30;89.40
48579;DHT22;34357;51.948;6.132;2023-12-04T02:27:02;0.30;89.30
48579;DHT22;34357;51.948;6.132;2023-12-04T02:29:32;0.30;89.30
48579;DHT22;34357;51.948;6.132;2023-12-04T02:32:02;0.30;89.40
48579;DHT22;34357;51.948;6.132;2023-12-04T02:34:30;0.30;89.40
48579;DHT22;34357;51.948;6.132;2023-12-04T02:36:58;0.30;89.30
48579;DHT22;34357;51.948;6.132;2023-12-04T02:39:25;0.30;89.30
48579;DHT22;34357;51.948;6.132;2023-12-04T02:41:51;0.30;89.20
48579;DHT22;34357;51.948;6.132;2023-12-04T02:44:16;0.30;89.00
48579;DHT22;34357;51.948;6.132;2023-12-04T02:46:43;0.30;89.00
48579;DHT22;34357;51.948;6.132;2023-12-04T02:49:08;0.30;89.00
48579;DHT22;34357;51.948;6.132;2023-12-04T02:51:34;0.30;88.90
48579;DHT22;34357;51.948;6.132;2023-12-04T02:54:00;0.30;89.00
48579;DHT22;34357;51.948;6.132;2023-12-04T02:56:25;0.30;89.00
48579;DHT22;34357;51.948;6.132;2023-12-04T02:58:51;0.30;88.90
48579;DHT22;34357;51.948;6.132;2023-12-04T03:01:17;0.30;88.80
48579;DHT22;34357;51.948;6.132;2023-12-04T03:03:42;0.30;88.60
48579;DHT22;34357;51.948;6.132;2023-12-04T03:06:08;0.30;88.50
48579;DHT22;34357;51.948;6.132;2023-12-04T03:08:34;0.30;88.60
48579;DHT22;34357;51.948;6.132;2023-12-04T03:11:02;0.30;88.50
48579;DHT22;34357;51.948;6.132;2023-12-04T03:13:29;0.30;88.40
48579;DHT22;34357;51.948;6.132;2023-12-04T03:15:55;0.30;88.40
48579;DHT22;34357;51.948;6.132;2023-12-04T03:18:20;0.30;88.50
48579;DHT22;34357;51.948;6.132;2023-12-04T03:20:48;0.30;88.40
48579;DHT22;34357;51.948;6.132;2023-12-04T03:23:14;0.30;88.30
48579;DHT22;34357;51.948;6.132;2023-12-04T03:25:40;0.30;88.10
48579;DHT22;34357;51.948;6.132;2023-12-04T03:28:05;0.30;88.20
48579;DHT22;34357;51.948;6.132;2023-12-04T03:30:31;0.30;88.20
48579;DHT22;34357;51.948;6.132;2023-12-04T03:32:57;0.30;88.20
48579;DHT22;34357;51.948;6.132;2023-12-04T03:35:22;0.30;87.90
48579;DHT22;34357;51.948;6.132;2023-12-04T03:37:48;0.30;87.80
48579;DHT22;34357;51.948;6.132;2023-12-04T03:40:16;0.30;87.90
48579;DHT22;34357;51.948;6.132;2023-12-04T03:42:41;0.30;88.00
48579;DHT22;34357;51.948;6.132;2023-12-04T03:45:07;0.40;88.10
48579;DHT22;34357;51.948;6.132;2023-12-04T03:47:33;0.30;87.80
48579;DHT22;34357;51.948;6.132;2023-12-04T03:49:59;0.40;87.50
48579;DHT22;34357;51.948;6.132;2023-12-04T03:52:25;0.40;87.50
48579;DHT22;34357;51.948;6.132;2023-12-04T03:54:50;0.40;87.40
48579;DHT22;34357;51.948;6.132;2023-12-04T03:57:16;0.40;87.30
48579;DHT22;34357;51.948;6.132;2023-12-04T03:59:43;0.40;87.20
48579;DHT22;34357;51.948;6.132;2023-12-04T04:02:09;0.40;87.30
48579;DHT22;34357;51.948;6.132;2023-12-04T04:04:35;0.40;87.00
48579;DHT22;34357;51.948;6.132;2023-12-04T04:07:00;0.40;86.90
48579;DHT22;34357;51.948;6.132;2023-12-04T04:09:26;0.40;86.90
48579;DHT22;34357;51.948;6.132;2023-12-04T04:11:52;0.40;87.00
48579;DHT22;34357;51.948;6.132;2023-12-04T04:14:17;0.40;86.90
48579;DHT22;34357;51.948;6.132;2023-12-04T04:16:43;0.40;86.60
48579;DHT22;34357;51.948;6.132;2023-12-04T04:19:09;0.40;86.60
48579;DHT22;34357;51.948;6.132;2023-12-04T04:21:34;0.30;86.80
48579;DHT22;34357;51.948;6.132;2023-12-04T04:24:04;0.40;87.00
48579;DHT22;34357;51.948;6.132;2023-12-04T04:26:30;0.30;86.80
48579;DHT22;34357;51.948;6.132;2023-12-04T04:28:56;0.40;86.60
48579;DHT22;34357;51.948;6.132;2023-12-04T04:31:21;0.40;86.90
48579;DHT22;34357;51.948;6.132;2023-12-04T04:33:47;0.40;86.30
48579;DHT22;34357;51.948;6.132;2023-12-04T04:36:13;0.40;86.10
48579;DHT22;34357;51.948;6.132;2023-12-04T04:38:39;0.40;86.30
48579;DHT22;34357;51.948;6.132;2023-12-04T04:41:05;0.40;86.30
48579;DHT22;34357;51.948;6.132;2023-12-04T04:43:31;0.40;86.30
48579;DHT22;34357;51.948;6.132;2023-12-04T04:45:57;0.40;86.10
48579;DHT22;34357;51.948;6.132;2023-12-04T04:48:23;0.40;86.30
48579;DHT22;34357;51.948;6.132;2023-12-04T04:50:48;0.40;86.50
48579;DHT22;34357;51.948;6.132;2023-12-04T04:53:14;0.40;86.10
48579;DHT22;34357;51.948;6.132;2023-12-04T04:55:40;0.40;86.10
48579;DHT22;34357;51.948;6.132;2023-12-04T04:58:05;0.40;86.00
48579;DHT22;34357;51.948;6.132;2023-12-04T05:00:31;0.30;86.00
48579;DHT22;34357;51.948;6.132;2023-12-04T05:02:57;0.30;86.30
48579;DHT22;34357;51.948;6.132;2023-12-04T05:05:22;0.30;86.20
48579;DHT22;34357;51.948;6.132;2023-12-04T05:07:48;0.30;86.20
48579;DHT22;34357;51.948;6.132;2023-12-04T05:10:14;0.30;86.00
48579;DHT22;34357;51.948;6.132;2023-12-04T05:12:40;0.30;85.80
48579;DHT22;34357;51.948;6.132;2023-12-04T05:15:06;0.30;85.70
48579;DHT22;34357;51.948;6.132;2023-12-04T05:17:32;0.30;86.10
48579;DHT22;34357;51.948;6.132;2023-12-04T05:19:57;0.30;86.00
48579;DHT22;34357;51.948;6.132;2023-12-04T05:22:23;0.30;85.90
48579;DHT22;34357;51.948;6.132;2023-12-04T05:24:49;0.30;85.70
48579;DHT22;34357;51.948;6.132;2023-12-04T05:27:14;0.30;85.80
48579;DHT22;34357;51.948;6.132;2023-12-04T05:29:41;0.30;85.80
48579;DHT22;34357;51.948;6.132;2023-12-04T05:32:06;0.30;86.10
48579;DHT22;34357;51.948;6.132;2023-12-04T05:34:32;0.30;85.80
48579;DHT22;34357;51.948;6.132;2023-12-04T05:36:58;0.30;85.40
48579;DHT22;34357;51.948;6.132;2023-12-04T05:39:23;0.40;85.10
48579;DHT22;34357;51.948;6.132;2023-12-04T05:41:49;0.40;84.90
48579;DHT22;34357;51.948;6.132;2023-12-04T05:44:15;0.40;84.90
48579;DHT22;34357;51.948;6.132;2023-12-04T05:46:40;0.40;84.90
48579;DHT22;34357;51.948;6.132;2023-12-04T05:49:06;0.30;84.70
48579;DHT22;34357;51.948;6.132;2023-12-04T05:51:32;0.40;84.40
48579;DHT22;34357;51.948;6.132;2023-12-04T05:53:58;0.40;84.50
48579;DHT22;34357;51.948;6.132;2023-12-04T05:56:23;0.40;84.30
48579;DHT22;34357;51.948;6.132;2023-12-04T05:58:49;0.40;84.10
48579;DHT22;34357;51.948;6.132;2023-12-04T06:01:15;0.40;84.10
48579;DHT22;34357;51.948;6.132;2023-12-04T06:03:41;0.40;84.10
48579;DHT22;34357;51.948;6.132;2023-12-04T06:06:07;0.40;83.80
48579;DHT22;34357;51.948;6.132;2023-12-04T06:08:32;0.40;83.50
48579;DHT22;34357;51.948;6.132;2023-12-04T06:10:58;0.40;83.80
48579;DHT22;34357;51.948;6.132;2023-12-04T06:13:24;0.40;83.50
48579;DHT22;34357;51.948;6.132;2023-12-04T06:15:50;0.50;82.70
48579;DHT22;34357;51.948;6.132;2023-12-04T06:18:15;0.50;82.80
48579;DHT22;34357;51.948;6.132;2023-12-04T06:20:41;0.50;83.20
48579;DHT22;34357;51.948;6.132;2023-12-04T06:23:07;0.50;82.90
48579;DHT22;34357;51.948;6.132;2023-12-04T06:25:33;0.50;82.50
48579;DHT22;34357;51.948;6.132;2023-12-04T06:27:59;0.50;82.80
48579;DHT22;34357;51.948;6.132;2023-12-04T06:30:25;0.50;82.10
48579;DHT22;34357;51.948;6.132;2023-12-04T06:32:52;0.50;81.90
48579;DHT22;34357;51.948;6.132;2023-12-04T06:35:18;0.50;82.30
48579;DHT22;34357;51.948;6.132;2023-12-04T06:37:45;0.50;82.00
48579;DHT22;34357;51.948;6.132;2023-12-04T06:40:12;0.50;82.40
48579;DHT22;34357;51.948;6.132;2023-12-04T06:42:38;0.50;82.00
48579;DHT22;34357;51.948;6.132;2023-12-04T06:45:04;0.60;81.70
48579;DHT22;34357;51.948;6.132;2023-12-04T06:47:34;0.60;80.80
48579;DHT22;34357;51.948;6.132;2023-12-04T06:50:00;0.60;81.10
48579;DHT22;34357;51.948;6.132;2023-12-04T06:52:26;0.60;80.80
48579;DHT22;34357;51.948;6.132;2023-12-04T06:54:51;0.70;80.70
48579;DHT22;34357;51.948;6.132;2023-12-04T06:57:17;0.70;80.70
48579;DHT22;34357;51.948;6.132;2023-12-04T06:59:43;0.70;79.80
48579;DHT22;34357;51.948;6.132;2023-12-04T07:02:09;0.70;81.10
48579;DHT22;34357;51.948;6.132;2023-12-04T07:04:35;0.70;80.50
48579;DHT22;34357;51.948;6.132;2023-12-04T07:07:02;0.60;81.60
48579;DHT22;34357;51.948;6.132;2023-12-04T07:09:34;0.70;80.90
48579;DHT22;34357;51.948;6.132;2023-12-04T07:12:00;0.60;80.60
48579;DHT22;34357;51.948;6.132;2023-12-04T07:14:26;0.60;81.40
48579;DHT22;34357;51.948;6.132;2023-12-04T07:16:52;0.70;80.50
48579;DHT22;34357;51.948;6.132;2023-12-04T07:19:18;0.70;79.80
48579;DHT22;34357;51.948;6.132;2023-12-04T07:21:44;0.70;79.00
48579;DHT22;34357;51.948;6.132;2023-12-04T07:24:09;0.70;79.70
48579;DHT22;34357;51.948;6.132;2023-12-04T07:26:35;0.70;79.70
48579;DHT22;34357;51.948;6.132;2023-12-04T07:29:02;0.70;80.10
48579;DHT22;34357;51.948;6.132;2023-12-04T07:31:28;0.60;80.40
48579;DHT22;34357;51.948;6.132;2023-12-04T07:33:54;0.70;80.20
48579;DHT22;34357;51.948;6.132;2023-12-04T07:36:20;0.70;79.50
48579;DHT22;34357;51.948;6.132;2023-12-04T07:38:46;0.70;79.70
48579;DHT22;34357;51.948;6.132;2023-12-04T07:41:12;0.70;79.80
48579;DHT22;34357;51.948;6.132;2023-12-04T07:43:39;0.70;79.80
48579;DHT22;34357;51.948;6.132;2023-12-04T07:46:05;0.70;79.70
48579;DHT22;34357;51.948;6.132;2023-12-04T07:48:31;0.70;79.80
48579;DHT22;34357;51.948;6.132;2023-12-04T07:50:57;0.70;79.70
48579;DHT22;34357;51.948;6.132;2023-12-04T07:53:22;0.80;79.70
48579;DHT22;34357;51.948;6.132;2023-12-04T07:55:49;0.70;79.70
48579;DHT22;34357;51.948;6.132;2023-12-04T07:58:17;0.80;78.70
48579;DHT22;34357;51.948;6.132;2023-12-04T08:00:44;0.80;79.20
48579;DHT22;34357;51.948;6.132;2023-12-04T08:03:10;0.80;79.10
48579;DHT22;34357;51.948;6.132;2023-12-04T08:05:36;0.90;79.10
48579;DHT22;34357;51.948;6.132;2023-12-04T08:08:02;0.90;78.90
48579;DHT22;34357;51.948;6.132;2023-12-04T08:10:28;0.90;79.00
48579;DHT22;34357;51.948;6.132;2023-12-04T08:12:53;0.90;79.20
48579;DHT22;34357;51.948;6.132;2023-12-04T08:15:19;0.80;80.00
48579;DHT22;34357;51.948;6.132;2023-12-04T08:17:45;0.90;79.00
48579;DHT22;34357;51.948;6.132;2023-12-04T08:20:11;1.00;78.60
48579;DHT22;34357;51.948;6.132;2023-12-04T08:22:41;0.90;78.90
48579;DHT22;34357;51.948;6.132;2023-12-04T08:25:07;1.00;77.80
48579;DHT22;34357;51.948;6.132;2023-12-04T08:27:33;1.10;77.50
48579;DHT22;34357;51.948;6.132;2023-12-04T08:29:59;1.10;77.30
48579;DHT22;34357;51.948;6.132;2023-12-04T08:32:25;1.10;77.80
48579;DHT22;34357;51.948;6.132;2023-12-04T08:34:54;1.10;77.70
48579;DHT22;34357;51.948;6.132;2023-12-04T08:37:19;1.10;77.90
48579;DHT22;34357;51.948;6.132;2023-12-04T08:39:46;1.10;77.70
48579;DHT22;34357;51.948;6.132;2023-12-04T08:42:12;1.10;79.10
48579;DHT22;34357;51.948;6.132;2023-12-04T08:44:38;1.10;78.90
48579;DHT22;34357;51.948;6.132;2023-12-04T08:47:04;1.20;79.00
48579;DHT22;34357;51.948;6.132;2023-12-04T08:49:30;1.10;79.00
48579;DHT22;34357;51.948;6.132;2023-12-04T08:51:56;1.10;79.10
48579;DHT22;34357;51.948;6.132;2023-12-04T08:54:22;1.10;78.30
48579;DHT22;34357;51.948;6.132;2023-12-04T08:56:47;1.10;78.20
48579;DHT22;34357;51.948;6.132;2023-12-04T08:59:13;1.10;79.10
48579;DHT22;34357;51.948;6.132;2023-12-04T09:01:39;1.10;79.40
48579;DHT22;34357;51.948;6.132;2023-12-04T09:04:05;1.20;78.30
48579;DHT22;34357;51.948;6.132;2023-12-04T09:06:32;1.20;78.00
48579;DHT22;34357;51.948;6.132;2023-12-04T09:08:58;1.20;78.00
48579;DHT22;34357;51.948;6.132;2023-12-04T09:11:24;1.20;78.10
48579;DHT22;34357;51.948;6.132;2023-12-04T09:13:49;1.10;78.90
48579;DHT22;34357;51.948;6.132;2023-12-04T09:16:15;1.20;78.50
48579;DHT22;34357;51.948;6.132;2023-12-04T09:18:41;1.20;79.10
48579;DHT22;34357;51.948;6.132;2023-12-04T09:21:07;1.20;79.00
48579;DHT22;34357;51.948;6.132;2023-12-04T09:23:34;1.20;79.30
48579;DHT22;34357;51.948;6.132;2023-12-04T09:26:00;1.20;78.60
48579;DHT22;34357;51.948;6.132;2023-12-04T09:28:25;1.30;78.80
48579;DHT22;34357;51.948;6.132;2023-12-04T09:30:51;1.30;78.40
48579;DHT22;34357;51.948;6.132;2023-12-04T09:33:17;1.40;79.00
48579;DHT22;34357;51.948;6.132;2023-12-04T09:35:43;1.30;79.60
48579;DHT22;34357;51.948;6.132;2023-12-04T09:38:10;1.30;79.40
48579;DHT22;34357;51.948;6.132;2023-12-04T09:40:35;1.30;79.60
48579;DHT22;34357;51.948;6.132;2023-12-04T09:43:01;1.30;79.50
48579;DHT22;34357;51.948;6.132;2023-12-04T09:45:29;1.40;79.00
48579;DHT22;34357;51.948;6.132;2023-12-04T09:47:56;1.40;79.30
48579;DHT22;34357;51.948;6.132;2023-12-04T09:50:22;1.40;79.70
48579;DHT22;34357;51.948;6.132;2023-12-04T09:52:51;1.50;79.70
48579;DHT22;34357;51.948;6.132;2023-12-04T09:55:20;1.60;79.20
48579;DHT22;34357;51.948;6.132;2023-12-04T09:57:46;1.60;79.10
48579;DHT22;34357;51.948;6.132;2023-12-04T10:00:15;1.60;79.40
48579;DHT22;34357;51.948;6.132;2023-12-04T10:02:42;1.60;79.00
48579;DHT22;34357;51.948;6.132;2023-12-04T10:05:08;1.70;79.00
48579;DHT22;34357;51.948;6.132;2023-12-04T10:07:34;1.70;79.70
48579;DHT22;34357;51.948;6.132;2023-12-04T10:10:02;1.70;79.20
48579;DHT22;34357;51.948;6.132;2023-12-04T10:12:31;1.80;78.90
48579;DHT22;34357;51.948;6.132;2023-12-04T10:15:06;1.80;79.50
48579;DHT22;34357;51.948;6.132;2023-12-04T10:17:40;1.80;79.70
48579;DHT22;34357;51.948;6.132;2023-12-04T10:20:14;1.90;78.40
48579;DHT22;34357;51.948;6.132;2023-12-04T10:23:02;1.90;78.70
48579;DHT22;34357;51.948;6.132;2023-12-04T10:25:31;2.00;78.10
48579;DHT22;34357;51.948;6.132;2023-12-04T10:28:09;2.00;77.70
48579;DHT22;34357;51.948;6.132;2023-12-04T10:30:35;2.00;77.50
48579;DHT22;34357;51.948;6.132;2023-12-04T10:33:02;2.00;77.80
48579;DHT22;34357;51.948;6.132;2023-12-04T10:35:29;2.00;77.40
48579;DHT22;34357;51.948;6.132;2023-12-04T10:37:56;2.00;77.10
48579;DHT22;34357;51.948;6.132;2023-12-04T10:40:26;2.10;77.30
48579;DHT22;34357;51.948;6.132;2023-12-04T10:43:13;2.00;77.80
48579;DHT22;34357;51.948;6.132;2023-12-04T10:45:40;2.10;76.50
48579;DHT22;34357;51.948;6.132;2023-12-04T10:48:08;2.10;76.50
48579;DHT22;34357;51.948;6.132;2023-12-04T10:50:35;2.10;76.20
48579;DHT22;34357;51.948;6.132;2023-12-04T10:53:07;2.10;75.50
48579;DHT22;34357;51.948;6.132;2023-12-04T10:55:34;2.10;76.50
48579;DHT22;34357;51.948;6.132;2023-12-04T10:58:01;2.20;76.50
48579;DHT22;34357;51.948;6.132;2023-12-04T11:00:30;2.10;75.00
48579;DHT22;34357;51.948;6.132;2023-12-04T11:03:09;2.10;76.50
48579;DHT22;34357;51.948;6.132;2023-12-04T11:05:40;2.10;75.50
48579;DHT22;34357;51.948;6.132;2023-12-04T11:08:07;2.20;76.30
48579;DHT22;34357;51.948;6.132;2023-12-04T11:10:40;2.10;76.20
48579;DHT22;34357;51.948;6.132;2023-12-04T11:13:34;2.20;75.90
48579;DHT22;34357;51.948;6.132;2023-12-04T11:16:04;2.20;74.80
48579;DHT22;34357;51.948;6.132;2023-12-04T11:18:34;2.20;75.80
48579;DHT22;34357;51.948;6.132;2023-12-04T11:21:09;2.20;76.40
48579;DHT22;34357;51.948;6.132;2023-12-04T11:23:35;2.20;75.50
48579;DHT22;34357;51.948;6.132;2023-12-04T11:26:03;2.20;76.50
48579;DHT22;34357;51.948;6.132;2023-12-04T11:28:30;2.20;77.00
48579;DHT22;34357;51.948;6.132;2023-12-04T11:30:58;2.20;75.30
48579;DHT22;34357;51.948;6.132;2023-12-04T11:33:24;2.20;75.90
48579;DHT22;34357;51.948;6.132;2023-12-04T11:35:50;2.20;75.60
48579;DHT22;34357;51.948;6.132;2023-12-04T11:38:17;2.20;76.30
48579;DHT22;34357;51.948;6.132;2023-12-04T11:40:43;2.20;75.20
48579;DHT22;34357;51.948;6.132;2023-12-04T11:43:28;2.30;74.90
48579;DHT22;34357;51.948;6.132;2023-12-04T11:46:08;2.20;74.90
48579;DHT22;34357;51.948;6.132;2023-12-04T11:48:40;2.30;75.20
48579;DHT22;34357;51.948;6.132;2023-12-04T11:51:08;2.20;75.70
48579;DHT22;34357;51.948;6.132;2023-12-04T11:53:38;2.20;75.10
48579;DHT22;34357;51.948;6.132;2023-12-04T11:56:11;2.20;75.40
48579;DHT22;34357;51.948;6.132;2023-12-04T11:58:44;2.20;75.50
48579;DHT22;34357;51.948;6.132;2023-12-04T12:01:10;2.20;75.90
48579;DHT22;34357;51.948;6.132;2023-12-04T12:03:36;2.20;74.60
48579;DHT22;34357;51.948;6.132;2023-12-04T12:06:03;2.30;75.00
48579;DHT22;34357;51.948;6.132;2023-12-04T12:08:29;2.30;75.20
48579;DHT22;34357;51.948;6.132;2023-12-04T12:10:56;2.30;76.00
48579;DHT22;34357;51.948;6.132;2023-12-04T12:13:23;2.30;75.10
48579;DHT22;34357;51.948;6.132;2023-12-04T12:15:51;2.30;75.30
48579;DHT22;34357;51.948;6.132;2023-12-04T12:18:18;2.30;76.40
48579;DHT22;34357;51.948;6.132;2023-12-04T12:20:44;2.30;76.10
48579;DHT22;34357;51.948;6.132;2023-12-04T12:23:10;2.40;76.30
48579;DHT22;34357;51.948;6.132;2023-12-04T12:25:36;2.40;75.60
48579;DHT22;34357;51.948;6.132;2023-12-04T12:28:02;2.40;75.90
48579;DHT22;34357;51.948;6.132;2023-12-04T12:30:29;2.40;75.90
48579;DHT22;34357;51.948;6.132;2023-12-04T12:32:54;2.40;75.90
48579;DHT22;34357;51.948;6.132;2023-12-04T12:35:20;2.50;75.70
48579;DHT22;34357;51.948;6.132;2023-12-04T12:37:46;2.50;75.10
48579;DHT22;34357;51.948;6.132;2023-12-04T12:40:12;2.60;75.10
48579;DHT22;34357;51.948;6.132;2023-12-04T12:42:38;2.60;75.10
48579;DHT22;34357;51.948;6.132;2023-12-04T12:45:09;2.50;74.70
48579;DHT22;34357;51.948;6.132;2023-12-04T12:47:37;2.50;75.30
48579;DHT22;34357;51.948;6.132;2023-12-04T12:50:03;2.50;75.60
48579;DHT22;34357;51.948;6.132;2023-12-04T12:52:29;2.50;76.30
48579;DHT22;34357;51.948;6.132;2023-12-04T12:54:55;2.50;75.90
48579;DHT22;34357;51.948;6.132;2023-12-04T12:57:21;2.50;76.20
48579;DHT22;34357;51.948;6.132;2023-12-04T12:59:47;2.50;76.20
48579;DHT22;34357;51.948;6.132;2023-12-04T13:02:14;2.50;75.50
48579;DHT22;34357;51.948;6.132;2023-12-04T13:04:43;2.40;76.50
48579;DHT22;34357;51.948;6.132;2023-12-04T13:07:09;2.40;76.50
48579;DHT22;34357;51.948;6.132;2023-12-04T13:09:36;2.40;76.80
48579;DHT22;34357;51.948;6.132;2023-12-04T13:12:03;2.40;77.10
48579;DHT22;34357;51.948;6.132;2023-12-04T13:14:30;2.40;77.00
48579;DHT22;34357;51.948;6.132;2023-12-04T13:16:55;2.40;77.10
48579;DHT22;34357;51.948;6.132;2023-12-04T13:19:22;2.40;77.90
48579;DHT22;34357;51.948;6.132;2023-12-04T13:21:48;2.40;77.90
48579;DHT22;34357;51.948;6.132;2023-12-04T13:24:14;2.40;77.80
48579;DHT22;34357;51.948;6.132;2023-12-04T13:26:40;2.40;78.60
48579;DHT22;34357;51.948;6.132;2023-12-04T13:29:06;2.40;78.80
48579;DHT22;34357;51.948;6.132;2023-12-04T13:31:33;2.40;78.70
48579;DHT22;34357;51.948;6.132;2023-12-04T13:33:58;2.40;78.60
48579;DHT22;34357;51.948;6.132;2023-12-04T13:36:24;2.40;78.70
48579;DHT22;34357;51.948;6.132;2023-12-04T13:38:50;2.40;78.90
48579;DHT22;34357;51.948;6.132;2023-12-04T13:41:16;2.40;79.60
48579;DHT22;34357;51.948;6.132;2023-12-04T13:44:00;2.40;80.10
48579;DHT22;34357;51.948;6.132;2023-12-04T13:46:27;2.40;80.30
48579;DHT22;34357;51.948;6.132;2023-12-04T13:48:56;2.50;80.40
48579;DHT22;34357;51.948;6.132;2023-12-04T13:51:21;2.40;81.10
48579;DHT22;34357;51.948;6.132;2023-12-04T13:53:48;2.50;81.30
48579;DHT22;34357;51.948;6.132;2023-12-04T13:56:16;2.50;81.20
48579;DHT22;34357;51.948;6.132;2023-12-04T13:59:07;2.50;81.00
48579;DHT22;34357;51.948;6.132;2023-12-04T14:01:33;2.40;82.00
48579;DHT22;34357;51.948;6.132;2023-12-04T14:03:59;2.40;82.30
48579;DHT22;34357;51.948;6.132;2023-12-04T14:06:31;2.40;82.20
48579;DHT22;34357;51.948;6.132;2023-12-04T14:08:58;2.40;82.50
48579;DHT22;34357;51.948;6.132;2023-12-04T14:11:24;2.40;83.00
48579;DHT22;34357;51.948;6.132;2023-12-04T14:13:50;2.30;83.40
48579;DHT22;34357;51.948;6.132;2023-12-04T14:16:16;2.30;83.80
48579;DHT22;34357;51.948;6.132;2023-12-04T14:18:42;2.30;84.10
48579;DHT22;34357;51.948;6.132;2023-12-04T14:21:10;2.30;84.60
48579;DHT22;34357;51.948;6.132;2023-12-04T14:23:36;2.30;84.80
48579;DHT22;34357;51.948;6.132;2023-12-04T14:26:02;2.30;84.90
48579;DHT22;34357;51.948;6.132;2023-12-04T14:28:28;2.30;85.10
48579;DHT22;34357;51.948;6.132;2023-12-04T14:30:54;2.20;85.30
48579;DHT22;34357;51.948;6.132;2023-12-04T14:33:20;2.30;85.40
48579;DHT22;34357;51.948;6.132;2023-12-04T14:35:47;2.30;85.40
48579;DHT22;34357;51.948;6.132;2023-12-04T14:38:13;2.20;85.30
48579;DHT22;34357;51.948;6.132;2023-12-04T14:40:38;2.20;85.50
48579;DHT22;34357;51.948;6.132;2023-12-04T14:43:04;2.20;85.50
48579;DHT22;34357;51.948;6.132;2023-12-04T14:45:35;2.20;85.60
48579;DHT22;34357;51.948;6.132;2023-12-04T14:48:02;2.20;85.60
48579;DHT22;34357;51.948;6.132;2023-12-04T14:50:31;2.20;85.60
48579;DHT22;34357;51.948;6.132;2023-12-04T14:52:57;2.20;85.90
48579;DHT22;34357;51.948;6.132;2023-12-04T14:55:24;2.20;85.80
48579;DHT22;34357;51.948;6.132;2023-12-04T14:57:51;2.20;85.70
48579;DHT22;34357;51.948;6.132;2023-12-04T15:00:35;2.20;85.70
48579;DHT22;34357;51.948;6.132;2023-12-04T15:03:19;2.20;85.90
48579;DHT22;34357;51.948;6.132;2023-12-04T15:06:20;2.20;86.20
48579;DHT22;34357;51.948;6.132;2023-12-04T15:08:58;2.20;86.30
48579;DHT22;34357;51.948;6.132;2023-12-04T15:11:26;2.20;86.50
48579;DHT22;34357;51.948;6.132;2023-12-04T15:14:07;2.20;86.60
48579;DHT22;34357;51.948;6.132;2023-12-04T15:17:02;2.30;86.60
48579;DHT22;34357;51.948;6.132;2023-12-04T15:19:55;2.20;87.00
48579;DHT22;34357;51.948;6.132;2023-12-04T15:22:26;2.20;87.00
48579;DHT22;34357;51.948;6.132;2023-12-04T15:24:52;2.20;87.20
48579;DHT22;34357;51.948;6.132;2023-12-04T15:27:18;2.30;87.10
48579;DHT22;34357;51.948;6.132;2023-12-04T15:29:43;2.30;87.10
48579;DHT22;34357;51.948;6.132;2023-12-04T15:32:09;2.30;87.20
48579;DHT22;34357;51.948;6.132;2023-12-04T15:34:35;2.30;87.30
48579;DHT22;34357;51.948;6.132;2023-12-04T15:37:00;2.40;87.30
48579;DHT22;34357;51.948;6.132;2023-12-04T15:39:26;2.30;87.40
48579;DHT22;34357;51.948;6.132;2023-12-04T15:41:52;2.30;87.40
48579;DHT22;34357;51.948;6.132;2023-12-04T15:44:18;2.30;87.80